Airfield :
LOGIN :

Register | Disclaimer

   EN    FR    IT 

 










Legend :    VFR   Marginal VFR   IFR   Intensive IFR   Very Intensive IFR
Visi :
Ceiling :
>= 8 km
>= 3000ft
5 to 8 km
1000 to 3000 ft
1500m to 5 km
500 to 1000 ft
800 to 1500m
200 to 500 ft
< 800m
< 200 ft
Symbols :   Thunderstorms  Fog  Heavy snow  Heavy precipitations  Wind > 20 kt
SIGMETs :     Misc.  Thunderstorms  Icing  Turbulence  Mountain Waves  Volcanic Ashes






- Airport Elevation : 142 ft
- IATA code : FLR


LIRQ - Firenze Amerigo Vespucci

CURRENT METAR :
  • 171820Z VRB02KT 7000 NSC 05/04 Q1026

EXPIRED METARs :
  • 171750Z 08003KT 7000 NSC 05/05 Q1026
  • 171720Z 08004KT 8000 NSC 05/05 Q1025
  • 171650Z VRB01KT 8000 NSC 06/05 Q1025
  • 171620Z 24002KT CAVOK 08/06 Q1025
  • 171550Z 27003KT CAVOK 09/07 Q1025
  • 171520Z 28003KT 250V310 CAVOK 11/07 Q1026

TAF TAF LIRQ
Valid from the 17 at 18:00 until the 18 at 18:00 UTC


171700Z 1718/1818 VRB05KT 8000 SCT020
BECMG 1720/1722 0800 BCFG BKN010
BECMG 1806/1808 7000



MET'MAP, your aeronautical weather chart ! - Copyright ORBIFLY December 2007 - Disclaimer

ORBIFLY MET'MAP TEAM :

Programming & Development : Alexandra Zaïnal
Concept & original design : Baudouin d'Aumeries
Assistance for programming : Marc-Olivier Méhu
Technical & hardware support : Manuel Goepfert

Contact : metmap@orbifly.com




SOURCES & CREDITS :

   NOAA